MMMV

Monclova International Airport

Airport
ICAO code
MMMV
IATA Code
LOV
Summary
ICAO Region
CARSAM
ICAO Territory
Location

Ciudad Frontera, Coahuila de Zaragoza

Serving
Monclova
Elevation
1864 ft
Coordinates
26° 57' 21" N , 101° 28' 12" W
KCC
Metar
MMMV 221844Z 04010KT 8SM SCT200 35/22 A2976 RMK 8/002 HZY

Venustiano Carranza International Airport is an international airport located at Frontera, Coahuila, Mexico.

Climatology

Warm Semi-arid Climate (Köppen climate classification BSh)

Runways

Designator Length Width Surface Rops
06L/24R 1458 20 ASP Yes/Yes
06R/24L 2100 45 ASP Yes/Yes

Airport map

Aerial View

SKYbrary Partners:

Safety knowledge contributed by: